createdAt,value
2022-12-04T00:00:27.738Z,51.73
2022-12-04T00:02:54.833Z,51.72
2022-12-04T00:05:21.424Z,51.74
2022-12-04T00:07:48.773Z,51.60
2022-12-04T00:10:15.529Z,51.77
2022-12-04T00:12:42.567Z,51.56
2022-12-04T00:15:25.173Z,51.55
2022-12-04T00:17:53.595Z,51.37
2022-12-04T00:20:20.605Z,51.41
2022-12-04T00:22:47.152Z,51.71
2022-12-04T00:25:14.199Z,51.40
2022-12-04T00:27:40.958Z,51.93
2022-12-04T00:30:08.280Z,51.61
2022-12-04T00:32:35.300Z,51.55
2022-12-04T00:35:01.887Z,51.72
2022-12-04T00:37:28.432Z,51.52
2022-12-04T00:39:55.577Z,51.52
2022-12-04T00:42:22.698Z,51.46
2022-12-04T00:44:49.775Z,51.55
2022-12-04T00:47:16.806Z,51.47
2022-12-04T00:49:43.405Z,51.52
2022-12-04T00:52:09.955Z,51.52
2022-12-04T00:54:36.488Z,51.36
2022-12-04T00:57:03.013Z,51.50
2022-12-04T00:59:29.799Z,51.29
2022-12-04T01:01:56.817Z,51.36
2022-12-04T01:04:23.353Z,51.48
2022-12-04T01:06:50.350Z,51.44
2022-12-04T01:09:16.905Z,51.48
2022-12-04T01:11:43.463Z,51.38
2022-12-04T01:14:10.521Z,51.21
2022-12-04T01:16:39.830Z,51.54
2022-12-04T01:19:09.239Z,51.37
2022-12-04T01:21:36.687Z,51.27
2022-12-04T01:24:03.698Z,51.23
2022-12-04T01:26:31.055Z,51.23
2022-12-04T01:28:58.118Z,51.33
2022-12-04T01:31:25.722Z,51.39
2022-12-04T01:33:52.742Z,51.34
2022-12-04T01:36:26.053Z,51.62
2022-12-04T01:38:52.712Z,51.23
2022-12-04T01:41:23.737Z,51.20
2022-12-04T01:44:10.952Z,51.25
2022-12-04T01:46:38.838Z,51.24
2022-12-04T01:49:12.696Z,51.10
2022-12-04T01:51:46.412Z,51.23
2022-12-04T01:54:20.788Z,51.12
2022-12-04T01:56:54.915Z,50.98
2022-12-04T01:59:26.955Z,51.12
2022-12-04T02:02:06.828Z,51.23
2022-12-04T02:04:34.741Z,51.38
2022-12-04T02:07:01.875Z,51.10
2022-12-04T02:09:30.945Z,51.11
2022-12-04T02:12:15.792Z,51.14
2022-12-04T02:15:02.392Z,51.15
2022-12-04T02:17:46.249Z,51.33
2022-12-04T02:20:51.541Z,50.95
2022-12-04T02:23:29.755Z,51.20
2022-12-04T02:26:23.067Z,50.97
2022-12-04T02:28:55.445Z,50.97
2022-12-04T02:31:31.283Z,50.97
2022-12-04T02:36:50.616Z,51.35
2022-12-04T02:39:34.345Z,51.20
2022-12-04T02:42:12.246Z,51.25
2022-12-04T02:44:47.473Z,51.21
2022-12-04T02:47:20.293Z,51.23
2022-12-04T02:49:56.584Z,51.02
2022-12-04T02:52:29.668Z,51.22
2022-12-04T02:55:08.145Z,51.54
2022-12-04T02:57:40.919Z,51.51
2022-12-04T03:00:09.018Z,50.84
2022-12-04T03:12:48.984Z,50.63
2022-12-04T03:16:13.455Z,50.46
2022-12-04T03:19:29.231Z,50.46
2022-12-04T03:22:07.486Z,50.43
2022-12-04T03:24:56.909Z,50.40
2022-12-04T03:27:54.552Z,50.50
2022-12-04T03:30:42.815Z,50.74
2022-12-04T03:33:26.808Z,50.53
2022-12-04T03:36:35.177Z,50.55
2022-12-04T03:40:05.732Z,50.38
2022-12-04T03:47:17.994Z,50.73
2022-12-04T03:54:05.786Z,50.62
2022-12-04T04:00:22.543Z,50.70
2022-12-04T04:03:09.576Z,50.82
2022-12-04T04:09:47.908Z,50.56
2022-12-04T04:13:20.010Z,50.92
2022-12-04T04:16:19.715Z,50.84
2022-12-04T04:19:17.345Z,50.85
2022-12-04T04:22:12.776Z,50.90
2022-12-04T04:24:49.818Z,50.80
2022-12-04T04:27:37.342Z,50.83
2022-12-04T04:35:01.223Z,50.79
2022-12-04T04:36:49.100Z,50.57
2022-12-04T04:40:06.420Z,50.75
2022-12-04T04:43:15.933Z,50.97
2022-12-04T04:46:02.459Z,50.88
2022-12-04T04:49:01.108Z,50.70
2022-12-04T04:53:23.862Z,50.80
2022-12-04T05:01:49.240Z,50.69
2022-12-04T05:08:08.064Z,50.90
2022-12-04T05:10:58.755Z,50.95
2022-12-04T05:18:11.693Z,50.72
2022-12-04T05:20:52.265Z,50.90
2022-12-04T05:31:07.996Z,50.77
2022-12-04T05:33:48.263Z,51.19
2022-12-04T05:36:38.048Z,50.65
2022-12-04T05:42:45.103Z,50.62
2022-12-04T05:45:32.169Z,50.62
2022-12-04T05:58:30.977Z,50.45
2022-12-04T06:02:05.386Z,50.43
2022-12-04T06:04:32.823Z,50.88
2022-12-04T06:10:45.289Z,50.62
2022-12-04T06:13:50.041Z,50.68
2022-12-04T06:17:26.974Z,50.75
2022-12-04T06:23:46.399Z,50.99
2022-12-04T06:33:00.520Z,50.90
2022-12-04T06:35:33.463Z,51.09
2022-12-04T06:38:10.411Z,51.01
2022-12-04T06:43:35.372Z,50.78
2022-12-04T06:46:30.882Z,50.56
2022-12-04T06:49:05.103Z,50.46
2022-12-04T07:35:43.774Z,50.08
2022-12-04T07:38:10.273Z,50.05
2022-12-04T07:40:39.801Z,50.18
2022-12-04T07:43:06.381Z,50.53
2022-12-04T07:45:33.197Z,50.50
2022-12-04T07:50:30.510Z,50.61
2022-12-04T07:52:57.016Z,50.73
2022-12-04T07:55:23.637Z,50.88
2022-12-04T07:57:50.281Z,50.93
2022-12-04T08:00:17.627Z,51.10
2022-12-04T08:02:44.176Z,50.85
2022-12-04T08:05:11.235Z,51.05
2022-12-04T08:07:37.763Z,50.96
2022-12-04T08:10:05.118Z,51.20
2022-12-04T08:12:33.200Z,51.30
2022-12-04T08:15:00.291Z,51.47
2022-12-04T08:17:27.083Z,51.27
2022-12-04T08:19:54.721Z,51.20
2022-12-04T08:22:25.069Z,51.21
2022-12-04T08:30:15.608Z,50.57
2022-12-04T08:32:42.202Z,50.68
2022-12-04T08:35:09.692Z,50.69
2022-12-04T08:37:36.246Z,50.67
2022-12-04T08:40:03.825Z,50.77
2022-12-04T08:42:30.403Z,50.52
2022-12-04T08:44:56.922Z,50.89
2022-12-04T08:47:23.483Z,50.49
2022-12-04T08:49:50.062Z,50.66
2022-12-04T08:52:16.836Z,50.68
2022-12-04T08:54:43.875Z,50.66
2022-12-04T08:57:10.477Z,50.73
2022-12-04T08:59:39.690Z,50.83
2022-12-04T09:02:06.318Z,50.79
2022-12-04T09:04:34.835Z,50.61
2022-12-04T09:07:01.932Z,50.63
2022-12-04T09:09:28.490Z,50.67
2022-12-04T09:11:54.984Z,50.61
2022-12-04T09:14:25.773Z,50.73
2022-12-04T09:16:53.462Z,50.63
2022-12-04T09:19:20.746Z,50.59
2022-12-04T09:21:47.813Z,50.50
2022-12-04T09:24:15.475Z,50.73
2022-12-04T09:26:42.085Z,50.57
2022-12-04T09:29:08.645Z,50.53
2022-12-04T09:31:36.096Z,50.80
2022-12-04T09:34:03.226Z,50.72
2022-12-04T09:36:30.219Z,50.65
2022-12-04T09:38:58.692Z,50.55
2022-12-04T09:41:34.399Z,50.20
2022-12-04T09:44:03.473Z,49.87
2022-12-04T09:46:40.031Z,50.12
2022-12-04T09:49:17.300Z,49.62
2022-12-04T09:51:45.078Z,50.17
2022-12-04T09:54:18.763Z,49.85
2022-12-04T09:57:11.985Z,49.79
2022-12-04T09:59:38.484Z,50.69
2022-12-04T10:02:11.008Z,50.46
2022-12-04T10:04:37.870Z,50.46
2022-12-04T10:07:11.801Z,50.53
2022-12-04T10:09:47.417Z,50.62
2022-12-04T10:12:27.983Z,50.61
2022-12-04T10:15:16.246Z,50.54
2022-12-04T10:17:51.892Z,50.45
2022-12-04T10:20:27.472Z,50.55
2022-12-04T10:23:29.097Z,50.78
2022-12-04T10:25:55.823Z,50.63
2022-12-04T10:28:32.131Z,50.77
2022-12-04T10:31:02.980Z,50.68
2022-12-04T10:33:39.891Z,50.77
2022-12-04T10:36:10.714Z,50.79
2022-12-04T10:38:42.756Z,51.01
2022-12-04T10:41:24.604Z,50.72
2022-12-04T10:43:51.725Z,50.86
2022-12-04T10:46:31.174Z,50.93
2022-12-04T10:49:12.305Z,50.88
2022-12-04T10:51:41.548Z,51.11
2022-12-04T10:54:25.420Z,51.02
2022-12-04T10:56:52.658Z,51.39
2022-12-04T10:59:19.254Z,51.00
2022-12-04T11:01:46.076Z,50.98
2022-12-04T11:04:23.696Z,51.03
2022-12-04T11:06:51.916Z,51.18
2022-12-04T11:09:25.336Z,51.17
2022-12-04T11:11:52.640Z,51.20
2022-12-04T11:14:23.195Z,51.31
2022-12-04T11:17:01.046Z,51.13
2022-12-04T11:19:30.395Z,51.15
2022-12-04T11:22:19.374Z,51.31
2022-12-04T11:24:58.209Z,51.26
2022-12-04T11:27:34.257Z,51.36
2022-12-04T11:30:03.704Z,51.20
2022-12-04T11:32:33.644Z,51.36
2022-12-04T11:35:12.201Z,51.26
2022-12-04T11:37:44.936Z,51.41
2022-12-04T11:40:18.893Z,51.40
2022-12-04T11:43:12.418Z,51.25
2022-12-04T11:45:39.628Z,51.41
2022-12-04T11:48:16.897Z,51.33
2022-12-04T11:51:18.056Z,51.23
2022-12-04T11:53:57.768Z,51.44
2022-12-04T11:56:29.833Z,51.35
2022-12-04T11:59:42.643Z,51.17
2022-12-04T12:02:39.178Z,50.99
2022-12-04T12:05:32.145Z,50.90
2022-12-04T12:08:33.427Z,50.92
2022-12-04T12:11:16.537Z,50.95
2022-12-04T12:14:01.662Z,51.02
2022-12-04T12:16:50.067Z,50.89
2022-12-04T12:19:36.825Z,51.22
2022-12-04T12:22:33.850Z,51.34
2022-12-04T12:25:23.021Z,51.19
2022-12-04T12:28:37.969Z,51.17
2022-12-04T12:31:33.755Z,50.91
2022-12-04T12:34:23.130Z,51.07
2022-12-04T12:36:56.440Z,51.18
2022-12-04T12:39:38.719Z,51.36
2022-12-04T12:42:12.652Z,51.04
2022-12-04T12:45:07.009Z,51.19
2022-12-04T12:47:42.441Z,51.16
2022-12-04T12:50:29.095Z,51.33
2022-12-04T12:52:55.649Z,51.39
2022-12-04T12:55:30.751Z,51.27
2022-12-04T12:58:24.832Z,51.01
2022-12-04T13:01:08.091Z,51.24
2022-12-04T13:03:49.433Z,51.40
2022-12-04T13:06:24.903Z,51.32
2022-12-04T13:09:03.828Z,51.42
2022-12-04T13:11:32.184Z,51.36
2022-12-04T13:14:02.450Z,51.47
2022-12-04T13:16:43.582Z,51.61
2022-12-04T13:19:29.955Z,51.16
2022-12-04T13:22:02.782Z,51.52
2022-12-04T13:24:42.009Z,51.56
2022-12-04T13:27:50.066Z,51.69
2022-12-04T13:30:43.614Z,51.27
2022-12-04T13:33:39.406Z,51.49
2022-12-04T13:36:41.989Z,51.82
2022-12-04T13:39:33.297Z,51.42
2022-12-04T13:42:04.998Z,51.79
2022-12-04T13:44:34.154Z,51.57
2022-12-04T13:47:09.268Z,51.55
2022-12-04T13:49:39.253Z,51.71
2022-12-04T13:52:36.281Z,51.66
2022-12-04T13:55:02.923Z,51.73
2022-12-04T13:57:29.527Z,51.60
2022-12-04T14:00:34.841Z,51.73
2022-12-04T14:03:06.089Z,52.08
2022-12-04T14:05:43.490Z,51.76
2022-12-04T14:08:19.139Z,51.58
2022-12-04T14:11:08.185Z,51.76
2022-12-04T14:13:49.299Z,51.69
2022-12-04T14:16:29.077Z,51.75
2022-12-04T14:18:59.348Z,51.78
2022-12-04T14:21:38.214Z,51.90
2022-12-04T14:24:18.090Z,51.57
2022-12-04T14:29:47.517Z,51.67
2022-12-04T14:32:17.328Z,51.79
2022-12-04T14:34:46.544Z,51.64
2022-12-04T14:37:25.182Z,51.64
2022-12-04T14:39:52.901Z,51.80
2022-12-04T14:42:27.996Z,51.72
2022-12-04T14:44:57.967Z,51.72
2022-12-04T14:47:49.951Z,51.62
2022-12-04T14:50:25.690Z,51.46
2022-12-04T14:53:00.797Z,51.61
2022-12-04T14:55:52.666Z,51.53
2022-12-04T14:58:30.274Z,51.79
2022-12-04T15:01:23.926Z,51.40
2022-12-04T15:03:56.099Z,51.31
2022-12-04T15:06:32.360Z,51.48
2022-12-04T15:09:31.984Z,51.55
2022-12-04T15:12:17.243Z,51.58
2022-12-04T15:14:49.034Z,51.52
2022-12-04T15:17:17.896Z,51.57
2022-12-04T15:19:45.683Z,51.57
2022-12-04T15:22:19.649Z,51.52
2022-12-04T15:24:46.178Z,51.87
2022-12-04T15:27:15.284Z,51.80
2022-12-04T15:29:48.300Z,51.51
2022-12-04T15:32:17.615Z,51.62
2022-12-04T15:34:56.101Z,51.71
2022-12-04T15:37:25.406Z,51.75
2022-12-04T15:39:52.932Z,51.71
2022-12-04T15:42:22.694Z,51.88
2022-12-04T15:45:03.242Z,51.79
2022-12-04T15:47:33.031Z,51.83
2022-12-04T15:50:10.173Z,51.92
2022-12-04T15:52:37.405Z,51.77
2022-12-04T15:55:09.574Z,51.97
2022-12-04T15:57:41.455Z,51.76
2022-12-04T16:00:33.517Z,51.71
2022-12-04T16:03:01.539Z,51.93
2022-12-04T16:05:30.680Z,52.02
2022-12-04T16:08:20.913Z,52.03
2022-12-04T16:11:03.039Z,51.69
2022-12-04T16:13:35.766Z,51.83
2022-12-04T16:16:10.562Z,51.90
2022-12-04T16:18:38.667Z,51.78
2022-12-04T16:21:05.855Z,51.86
2022-12-04T16:23:33.310Z,52.03
2022-12-04T16:25:59.802Z,51.95
2022-12-04T16:28:26.385Z,51.90
2022-12-04T16:30:53.435Z,52.03
2022-12-04T16:33:20.014Z,52.04
2022-12-04T16:35:46.544Z,52.17
2022-12-04T16:38:16.500Z,52.06
2022-12-04T16:40:45.475Z,52.30
2022-12-04T16:43:16.056Z,52.05
2022-12-04T16:45:53.873Z,52.14
2022-12-04T16:48:20.749Z,52.08
2022-12-04T16:50:47.836Z,52.19
2022-12-04T16:53:19.718Z,52.22
2022-12-04T16:55:49.409Z,51.89
2022-12-04T16:58:16.801Z,52.09
2022-12-04T17:00:49.656Z,51.81
2022-12-04T17:03:26.301Z,51.76
2022-12-04T17:05:53.123Z,51.92
2022-12-04T17:08:20.132Z,51.79
2022-12-04T17:10:46.947Z,51.85
2022-12-04T17:13:13.611Z,51.83
2022-12-04T17:15:40.171Z,52.02
2022-12-04T17:18:11.939Z,52.04
2022-12-04T17:20:42.310Z,51.95
2022-12-04T17:23:10.912Z,51.79
2022-12-04T17:25:38.084Z,51.97
2022-12-04T17:28:05.249Z,51.90
2022-12-04T17:30:35.983Z,52.14
2022-12-04T17:33:03.636Z,52.14
2022-12-04T17:35:30.189Z,52.31
2022-12-04T17:38:03.828Z,52.22
2022-12-04T17:40:32.540Z,52.42
2022-12-04T17:42:59.501Z,52.27
2022-12-04T17:45:26.058Z,52.47
2022-12-04T17:47:52.599Z,52.35
2022-12-04T17:50:19.164Z,52.57
2022-12-04T17:52:46.169Z,52.53
2022-12-04T17:55:12.969Z,52.30
2022-12-04T17:57:39.470Z,52.46
2022-12-04T18:00:06.894Z,52.58
2022-12-04T18:02:33.526Z,52.43
2022-12-04T18:05:00.122Z,52.57
2022-12-04T18:07:26.616Z,52.54
2022-12-04T18:09:53.778Z,52.55
2022-12-04T18:12:20.377Z,52.51
2022-12-04T18:14:46.895Z,52.67
2022-12-04T18:17:13.427Z,52.73
2022-12-04T18:19:39.969Z,52.68
2022-12-04T18:22:06.550Z,52.63
2022-12-04T18:24:33.195Z,52.70
2022-12-04T18:26:59.762Z,52.60
2022-12-04T18:29:26.907Z,52.63
2022-12-04T18:31:53.575Z,52.56
2022-12-04T18:34:20.967Z,52.77
2022-12-04T18:36:48.297Z,52.79
2022-12-04T18:39:21.674Z,52.72
2022-12-04T18:41:49.310Z,52.72
2022-12-04T18:44:17.092Z,52.59
2022-12-04T18:46:43.726Z,52.44
2022-12-04T18:49:11.610Z,52.70
2022-12-04T18:51:40.729Z,52.50
2022-12-04T18:54:11.800Z,52.21
2022-12-04T18:56:39.175Z,52.64
2022-12-04T18:59:15.282Z,52.97
2022-12-04T19:01:43.130Z,52.14
2022-12-04T19:04:11.499Z,52.58
2022-12-04T19:06:42.812Z,52.49
2022-12-04T19:09:12.635Z,52.70
2022-12-04T19:11:39.748Z,52.88
2022-12-04T19:14:16.052Z,52.69
2022-12-04T19:16:44.480Z,52.56
2022-12-04T19:19:12.342Z,52.51
2022-12-04T19:21:39.983Z,52.62
2022-12-04T19:24:06.908Z,52.58
2022-12-04T19:26:35.134Z,52.46
2022-12-04T19:29:02.577Z,52.44
2022-12-04T19:31:32.944Z,52.67
2022-12-04T19:34:00.298Z,52.61
2022-12-04T19:36:29.857Z,52.61
2022-12-04T19:38:57.599Z,52.58
2022-12-04T19:41:26.409Z,52.61
2022-12-04T19:43:57.155Z,52.61
2022-12-04T19:46:26.336Z,52.61
2022-12-04T19:48:58.543Z,52.69
2022-12-04T19:51:25.778Z,52.66
2022-12-04T19:53:54.368Z,52.77
2022-12-04T19:56:24.502Z,52.70
2022-12-04T19:58:57.065Z,52.62
2022-12-04T20:01:26.677Z,52.71
2022-12-04T20:03:53.693Z,52.64
2022-12-04T20:06:23.377Z,52.82
2022-12-04T20:08:55.932Z,52.69
2022-12-04T20:11:23.457Z,52.50
2022-12-04T20:13:53.986Z,52.83
2022-12-04T20:16:20.654Z,52.80
2022-12-04T20:18:47.285Z,52.62
2022-12-04T20:21:14.035Z,52.68
2022-12-04T20:23:49.850Z,52.72
2022-12-04T20:26:21.055Z,52.95
2022-12-04T20:28:47.816Z,52.78
2022-12-04T20:31:28.289Z,52.88
2022-12-04T20:33:57.114Z,52.83
2022-12-04T20:36:28.380Z,52.89
2022-12-04T20:38:58.263Z,53.02
2022-12-04T20:41:27.721Z,53.08
2022-12-04T20:43:55.601Z,53.14
2022-12-04T20:46:24.589Z,53.39
2022-12-04T20:48:53.393Z,53.16
2022-12-04T20:51:25.848Z,53.15
2022-12-04T20:53:54.240Z,53.10
2022-12-04T20:56:23.283Z,53.00
2022-12-04T20:58:50.423Z,53.18
2022-12-04T21:01:19.487Z,53.01
2022-12-04T21:03:47.568Z,52.94
2022-12-04T21:06:17.077Z,53.09
2022-12-04T21:08:56.956Z,53.19
2022-12-04T21:11:30.480Z,52.99
2022-12-04T21:14:17.539Z,52.98
2022-12-04T21:16:45.696Z,53.00
2022-12-04T21:19:14.638Z,52.80
2022-12-04T21:21:41.255Z,52.73
2022-12-04T21:24:11.505Z,52.82
2022-12-04T21:26:38.357Z,53.01
2022-12-04T21:29:07.277Z,52.77
2022-12-04T21:31:35.915Z,52.87
2022-12-04T21:34:04.432Z,52.87
2022-12-04T21:36:31.810Z,52.72
2022-12-04T21:38:58.401Z,52.91
2022-12-04T21:41:44.593Z,52.94
2022-12-04T21:44:17.026Z,52.82
2022-12-04T21:46:45.059Z,53.01
2022-12-04T21:49:12.426Z,52.82
2022-12-04T21:51:56.793Z,52.90
2022-12-04T21:54:24.141Z,52.97
2022-12-04T21:56:50.831Z,52.89
2022-12-04T21:59:17.851Z,52.98
2022-12-04T22:01:44.612Z,53.02
2022-12-04T22:04:11.709Z,53.03
2022-12-04T22:06:38.370Z,53.11
2022-12-04T22:09:11.325Z,52.88
2022-12-04T22:11:41.313Z,52.93
2022-12-04T22:14:09.314Z,52.64
2022-12-04T22:16:41.586Z,52.84
2022-12-04T22:19:09.701Z,52.76
2022-12-04T22:21:36.445Z,52.81
2022-12-04T22:24:03.849Z,52.80
2022-12-04T22:26:31.280Z,52.88
2022-12-04T22:28:58.342Z,52.75
2022-12-04T22:31:28.384Z,52.83
2022-12-04T22:33:56.844Z,52.77
2022-12-04T22:36:28.916Z,52.75
2022-12-04T22:39:09.324Z,52.75
2022-12-04T22:41:37.951Z,52.59
2022-12-04T22:44:04.892Z,52.79
2022-12-04T22:46:31.648Z,52.84
2022-12-04T22:48:59.315Z,52.60
2022-12-04T22:51:27.089Z,52.79
2022-12-04T22:53:55.754Z,52.68
2022-12-04T22:56:28.825Z,52.70
2022-12-04T22:58:57.710Z,52.73
2022-12-04T23:01:29.749Z,52.80
2022-12-04T23:03:57.007Z,52.76
2022-12-04T23:06:26.457Z,52.80
2022-12-04T23:09:00.735Z,52.85
2022-12-04T23:11:27.906Z,52.70
2022-12-04T23:14:00.547Z,52.76
2022-12-04T23:16:29.299Z,52.74
2022-12-04T23:18:56.623Z,52.50
2022-12-04T23:21:24.087Z,52.63
2022-12-04T23:23:52.693Z,52.50
2022-12-04T23:26:22.416Z,52.52
2022-12-04T23:28:49.154Z,52.56
2022-12-04T23:31:16.686Z,52.51
2022-12-04T23:33:43.718Z,52.59
2022-12-04T23:36:12.285Z,52.59
2022-12-04T23:38:40.660Z,52.51
2022-12-04T23:41:18.218Z,52.50
2022-12-04T23:43:45.545Z,52.41
2022-12-04T23:46:14.111Z,52.65
2022-12-04T23:48:42.744Z,52.34
2022-12-04T23:51:12.132Z,52.40
2022-12-04T23:53:39.029Z,52.29
2022-12-04T23:56:15.711Z,52.43
2022-12-04T23:58:44.147Z,52.42
